Nearby METAR Reports

 

KSFB - Sanford/Orlando, Florida, USA
Distance from station: Α 8mi, 12km
Ενημερώθηκε: Tue 11/20/18 1:53am EST
Συννεφιά
Συννεφιά
 Ανεμος από calm
Ανεμος: Απνοια
Θερμοκρασία: 68°F , 20°C
Σημείο Δρόσου: 66°F , 19°C
Υγρασία: 94%
Βαρόμετρο: 30.06 inHg , 1017.9 hPa
Clouds: Συννεφιά
Visibility: 10 miles , 16 km
Cloud details: Μερικώς νεφελώδης 6000 ft
Συννεφιά 7000 ft
2018/11/20 06:53 KSFB 200653Z AUTO 00000KT 10SM SCT060 OVC070 20/19 A3006 RMK AO2 SLP179 T02000194
KORL - Orlando, Florida, USA
Distance from station: Ν 15mi, 24km
Ενημερώθηκε: Tue 11/20/18 1:53am EST
Συννεφιά
Συννεφιά
 Ανεμος από calm
Ανεμος: Απνοια
Θερμοκρασία: 70°F , 21°C
Σημείο Δρόσου: 66°F , 19°C
Υγρασία: 88%
Βαρόμετρο: 30.07 inHg , 1018.3 hPa
Clouds: Συννεφιά
Visibility: 10 miles , 16 km
Cloud details: Μερικώς νεφελώδης 5000 ft
Συννεφιά 7500 ft
2018/11/20 06:53 KORL 200653Z AUTO 00000KT 10SM SCT050 OVC075 21/19 A3007 RMK AO2 SLP184 T02060194
 
KDED - Deland, Florida, USA
Distance from station: Β 21mi, 34km
Ενημερώθηκε: Tue 11/20/18 2:35am EST
Σχεδόν νεφελώδης
Σχεδόν νεφελώδης
 Ανεμος από calm
Ανεμος: Απνοια
Θερμοκρασία: 63°F , 17°C
Σημείο Δρόσου: 63°F , 17°C
Υγρασία: 100%
Βαρόμετρο: 30.06 inHg , 1017.9 hPa
Clouds: Σχεδόν νεφελώδης
Visibility: 10 miles , 16 km
Cloud details: Μερικώς νεφελώδης 5000 ft
Σχεδόν νεφελώδης 7000 ft
2018/11/20 07:35 KDED 200735Z AUTO 00000KT 10SM SCT050 BKN070 17/17 A3006 RMK AO2
KMCO - Orlando, Florida, USA
Distance from station: Ν 24mi, 39km
Ενημερώθηκε: Tue 11/20/18 1:53am EST
Συννεφιά
Συννεφιά
 Ανεμος από ΒΒΑ
Ανεμος: ΒΒΑ 3 mph , 6 km/h
Θερμοκρασία: 70°F , 21°C
Σημείο Δρόσου: 66°F , 19°C
Υγρασία: 88%
Βαρόμετρο: 30.07 inHg , 1018.3 hPa
Clouds: Συννεφιά
Visibility: 10 miles , 16 km
Cloud details: Σχεδόν νεφελώδης 4100 ft
Συννεφιά 4900 ft
2018/11/20 06:53 KMCO 200653Z 02003KT 10SM BKN041 OVC049 21/19 A3007 RMK AO2 SLP179 T02060189
 
KLEE - Leesburg, Florida, USA
Distance from station: Δ 29mi, 47km
Ενημερώθηκε: Tue 11/20/18 1:53am EST
Αίθριος
Αίθριος
 Ανεμος από calm
Ανεμος: Απνοια
Θερμοκρασία: 63°F , 17°C
Σημείο Δρόσου: 63°F , 17°C
Υγρασία: 100%
Βαρόμετρο: 30.07 inHg , 1018.3 hPa
Clouds: Αίθριος
Visibility: 9 miles , 14 km
2018/11/20 06:53 KLEE 200653Z AUTO 00000KT 9SM CLR 17/17 A3007 RMK AO2 SLP182 T01720172
KEVB - New Smyrna Beach, Florida, USA
Distance from station: ΒΑ 31mi, 49km
Ενημερώθηκε: Mon 11/19/18 9:47pm EST
NOT Current
Μερικώς νεφελώδης
Μερικώς νεφελώδης
 Ανεμος από ΒΑ
Ανεμος: ΒΑ 6 mph , 9 km/h
Θερμοκρασία: 68°F , 20°C
Σημείο Δρόσου: 64°F , 18°C
Υγρασία: 88%
Βαρόμετρο: 30.11 inHg , 1019.6 hPa
Clouds: Μερικώς νεφελώδης
Visibility: 10 miles , 16 km
Cloud details: Μερικώς νεφελώδης 5500 ft
2018/11/20 02:47 KEVB 200247Z 05005KT 10SM SCT055 20/18 A3011 RMK LAST
 
KDAB - Daytona Beach, Florida, USA
Distance from station: ΒΒΑ 33mi, 53km
Ενημερώθηκε: Tue 11/20/18 1:53am EST
Shallow fog, Σχεδόν νεφελώδης
Shallow fog, Σχεδόν νεφελώδης
 Ανεμος από calm
Ανεμος: Απνοια
Θερμοκρασία: 63°F , 17°C
Σημείο Δρόσου: 63°F , 17°C
Υγρασία: 100%
Βαρόμετρο: 30.07 inHg , 1018.3 hPa
Περίληψη: Shallow Fog
Clouds: Σχεδόν νεφελώδης
Visibility: 8 miles , 13 km
Cloud details: Few Clouds 14000 ft
Σχεδόν νεφελώδης 20000 ft
2018/11/20 06:53 KDAB 200653Z 00000KT 8SM MIFG FEW140 BKN200 17/17 A3007 RMK AO2 SLP181 T01720172
KISM - Kissimmee/Orland, Florida, USA
Distance from station: Ν 34mi, 55km
Ενημερώθηκε: Tue 11/20/18 1:56am EST
Συννεφιά
Συννεφιά
 Ανεμος από calm
Ανεμος: Απνοια
Θερμοκρασία: 70°F , 21°C
Σημείο Δρόσου: 66°F , 19°C
Υγρασία: 88%
Βαρόμετρο: 30.07 inHg , 1018.3 hPa
Clouds: Συννεφιά
Visibility: 10 miles , 16 km
Cloud details: Σχεδόν νεφελώδης 4000 ft
Σχεδόν νεφελώδης 4700 ft
Συννεφιά 6000 ft
2018/11/20 06:56 KISM 200656Z AUTO 00000KT 10SM BKN040 BKN047 OVC060 21/19 A3007 RMK AO2 SLP185 T02110194 PNO $
 
KTIX - Titusville, Florida, USA
Distance from station: ΑΝΑ 38mi, 61km
Ενημερώθηκε: Mon 11/19/18 8:47pm EST
NOT Current
Μερικώς νεφελώδης
Μερικώς νεφελώδης
 Ανεμος από calm
Ανεμος: Απνοια
Θερμοκρασία: 73°F , 23°C
Σημείο Δρόσου: 72°F , 22°C
Υγρασία: 94%
Βαρόμετρο: 30.10 inHg , 1019.3 hPa
Clouds: Μερικώς νεφελώδης
Visibility: 7 miles , 11 km
Cloud details: Μερικώς νεφελώδης 5000 ft
2018/11/20 01:47 KTIX 200147Z 00000KT 7SM SCT050 23/22 A3010 RMK LAST
KOMN - Ormond Beach Vor, Florida, USA
Distance from station: ΒΒΑ 39mi, 63km
Ενημερώθηκε: Mon 11/19/18 6:50pm EST
NOT Current
Αίθριος
Αίθριος
 Ανεμος από ΒΒΑ
Ανεμος: ΒΒΑ 5 mph , 7 km/h
Θερμοκρασία: 66°F , 19°C
Σημείο Δρόσου: 66°F , 19°C
Υγρασία: 100%
Βαρόμετρο: 30.08 inHg , 1018.6 hPa
Clouds: Αίθριος
Visibility: 10 miles , 16 km
2018/11/19 23:50 KOMN 192350Z 03004KT 10SM CLR 19/19 A3008 RMK LAST
 
KTTS - Nasa Shuttle Fcl, Florida, USA
Distance from station: ΑΝΑ 39mi, 63km
Ενημερώθηκε: Tue 11/20/18 1:56am EST
Μερικώς νεφελώδης
Μερικώς νεφελώδης
 Ανεμος από calm
Ανεμος: Απνοια
Θερμοκρασία: 66°F , 19°C
Σημείο Δρόσου: 64°F , 18°C
Υγρασία: 94%
Βαρόμετρο: 30.05 inHg , 1017.6 hPa
Clouds: Μερικώς νεφελώδης
Visibility: 10 miles , 16 km
Cloud details: Μερικώς νεφελώδης 5000 ft
2018/11/20 06:56 KTTS 200656Z AUTO 00000KT 10SM SCT050 19/18 A3005 RMK AO2 SLP180 T01870179
KVVG - The Villages, Florida, USA
Distance from station: ΔΒΔ 40mi, 64km
Ενημερώθηκε: Wed 02/14/18 2:10pm EST
NOT Current

 Ανεμος από calm
Ανεμος: Απνοια
Θερμοκρασία: 73°F , 23°C
Σημείο Δρόσου: 66°F , 19°C
Υγρασία: 78%
Βαρόμετρο: 30.29 inHg , 1025.7 hPa
Visibility: 10 miles , 16 km
2018/02/14 19:10 KVVG 141910Z AUTO 00000KT 10SM 23/19 A3029 RMK A01
 
KXMR - Cape Canaveral, Florida, USA
Distance from station: ΑΝΑ 51mi, 83km
Ενημερώθηκε: Tue 11/20/18 1:56am EST
Few Clouds
Few Clouds
 Ανεμος από Β
Ανεμος: Β 3 mph , 6 km/h
Θερμοκρασία: 66°F , 19°C
Σημείο Δρόσου: 64°F , 18°C
Υγρασία: 94%
Βαρόμετρο: 30.04 inHg , 1017.3 hPa
Clouds: Few Clouds
Visibility: 10 miles , 16 km
Cloud details: Few Clouds 5500 ft
2018/11/20 06:56 KXMR 200656Z AUTO 35003KT 10SM FEW055 19/18 A3004 RMK AO2 SLP176 T01890179 $
KGIF - Winter Haven, Florida, USA
Distance from station: ΝΝΔ 55mi, 88km
Ενημερώθηκε: Tue 11/20/18 1:53am EST
Σχεδόν νεφελώδης
Σχεδόν νεφελώδης
 Ανεμος από ΑΒΑ
Ανεμος: ΑΒΑ 5 mph , 7 km/h
Θερμοκρασία: 70°F , 21°C
Σημείο Δρόσου: 68°F , 20°C
Υγρασία: 94%
Βαρόμετρο: 30.07 inHg , 1018.3 hPa
Clouds: Σχεδόν νεφελώδης
Visibility: 10 miles , 16 km
Cloud details: Σχεδόν νεφελώδης 3600 ft
2018/11/20 06:53 KGIF 200653Z AUTO 06004KT 10SM BKN036 21/20 A3007 RMK AO2 SLP180 T02110200
 
KCOF - Patrick Afb/Coco, Florida, USA
Distance from station: ΝΑ 58mi, 94km
Ενημερώθηκε: Tue 11/20/18 1:56am EST
Σχεδόν νεφελώδης
Σχεδόν νεφελώδης
 Ανεμος από ΒΔ
Ανεμος: ΒΔ 3 mph , 6 km/h
Θερμοκρασία: 73°F , 23°C
Σημείο Δρόσου: 73°F , 23°C
Υγρασία: 100%
Βαρόμετρο: 30.05 inHg , 1017.6 hPa
Clouds: Σχεδόν νεφελώδης
Visibility: 10 miles , 16 km
Cloud details: Few Clouds 5000 ft
Σχεδόν νεφελώδης 7000 ft
2018/11/20 06:56 KCOF 200656Z AUTO 32003KT 10SM FEW050 BKN070 23/23 A3005 RMK AO2 SLP180 T02260226
KINF - Inverness, Florida, USA
Distance from station: Δ 59mi, 95km
Ενημερώθηκε: Fri 09/21/18 11:35am EDT
NOT Current
Haze, Σχεδόν νεφελώδης
Haze, Σχεδόν νεφελώδης
 Ανεμος από calm
Ανεμος: Απνοια
Θερμοκρασία: 88°F , 31°C
Heat Index: 100°F , 38°C
Σημείο Δρόσου: 77°F , 25°C
Υγρασία: 70%
Βαρόμετρο: 30.11 inHg , 1019.6 hPa
Περίληψη: Haze
Clouds: Σχεδόν νεφελώδης
Visibility: 5 miles , 8 km
Cloud details: Σχεδόν νεφελώδης 2700 ft
Σχεδόν νεφελώδης 3700 ft
Σχεδόν νεφελώδης 5000 ft
2018/09/21 15:35 KINF 211535Z AUTO 00000KT 5SM HZ BKN027 BKN037 BKN050 31/25 A3011 RMK AO2
 
KOCF - Ocala Muni, Florida, USA
Distance from station: ΔΒΔ 60mi, 96km
Ενημερώθηκε: Tue 11/20/18 2:51am EST
Αίθριος
Αίθριος
 Ανεμος από calm
Ανεμος: Απνοια
Θερμοκρασία: 63°F , 17°C
Σημείο Δρόσου: 63°F , 17°C
Υγρασία: 100%
Βαρόμετρο: 30.07 inHg , 1018.3 hPa
Clouds: Αίθριος
Visibility: 9 miles , 14 km
2018/11/20 07:51 KOCF 200751Z AUTO 00000KT 9SM CLR 17/17 A3007 RMK AO2 SLP184 T01720167
KZPH - Zephyrhills, Florida, USA
Distance from station: ΝΔ 61mi, 99km
Ενημερώθηκε: Tue 11/20/18 2:55am EST
Mist, Αίθριος
Mist, Αίθριος
 Ανεμος από ΒΒΑ
Ανεμος: ΒΒΑ 3 mph , 6 km/h
Θερμοκρασία: 66°F , 19°C
Σημείο Δρόσου: 64°F , 18°C
Υγρασία: 94%
Βαρόμετρο: 30.06 inHg , 1017.9 hPa
Περίληψη: Mist
Clouds: Αίθριος
Visibility: 4 miles , 6 km
2018/11/20 07:55 KZPH 200755Z AUTO 02003KT 4SM BR CLR 19/18 A3006 RMK AO2 T01870184
 
KMLB - Melbourne, Florida, USA
Distance from station: ΝΑ 62mi, 100km
Ενημερώθηκε: Tue 11/20/18 1:53am EST
Σχεδόν νεφελώδης
Σχεδόν νεφελώδης
 Ανεμος από ΔΒΔ
Ανεμος: ΔΒΔ 3 mph , 6 km/h
Θερμοκρασία: 70°F , 21°C
Σημείο Δρόσου: 66°F , 19°C
Υγρασία: 88%
Βαρόμετρο: 30.05 inHg , 1017.6 hPa
Clouds: Σχεδόν νεφελώδης
Visibility: 10 miles , 16 km
Cloud details: Few Clouds 4900 ft
Σχεδόν νεφελώδης 7000 ft
2018/11/20 06:53 KMLB 200653Z AUTO 30003KT 10SM FEW049 BKN070 21/19 A3005 RMK AO2 SLP176 T02110194
KBOW - Bartow Municipal, Florida, USA
Distance from station: ΝΝΔ 63mi, 102km
Ενημερώθηκε: Tue 11/20/18 2:35am EST
Σχεδόν νεφελώδης
Σχεδόν νεφελώδης
 Ανεμος από calm
Ανεμος: Απνοια
Θερμοκρασία: 66°F , 19°C
Βαρόμετρο: 30.05 inHg , 1017.6 hPa
Clouds: Σχεδόν νεφελώδης
Visibility: 10 miles , 16 km
Cloud details: Σχεδόν νεφελώδης 5000 ft
2018/11/20 07:35 KBOW 200735Z AUTO 00000KT 10SM BKN050 19/ A3005 RMK AO2